Time;durP1;ratioP1;P1;durP2;ratioP2;P2;SDS_P1;SDS_P2;PMS_P1;PMS_P2;Temp;Humidity;BMP_temperature;BMP_pressure;BME280_temperature;BME280_humidity;BME280_pressure;Samples;Min_cycle;Max_cycle;Signal;HPM_P1;HPM_P2
2023/10/31 00:01:44;;;;;;;2.42;2.22;;;14.70;73.90;;;;;;4950514;28;20075;-49
2023/10/31 00:04:11;;;;;;;2.33;2.10;;;14.70;73.90;;;;;;4934380;28;20042;-53
2023/10/31 00:06:38;;;;;;;2.10;1.95;;;14.70;73.90;;;;;;4949685;28;20490;-50
2023/10/31 00:09:04;;;;;;;2.20;1.92;;;14.70;73.90;;;;;;4951004;28;20146;-52
2023/10/31 00:11:34;;;;;;;4.10;2.00;;;14.70;73.90;;;;;;4950092;28;20130;-49
2023/10/31 00:14:03;;;;;;;3.05;1.80;;;14.70;73.90;;;;;;4950927;28;20063;-50
2023/10/31 00:16:32;;;;;;;2.10;1.40;;;14.70;73.80;;;;;;4960242;28;20475;-53
2023/10/31 00:18:59;;;;;;;1.38;1.13;;;14.60;73.80;;;;;;4949718;28;20519;-49
2023/10/31 00:21:25;;;;;;;1.95;1.30;;;14.60;73.60;;;;;;4952830;28;20479;-53
2023/10/31 00:23:54;;;;;;;1.63;1.15;;;14.60;73.50;;;;;;4950332;28;20502;-51
2023/10/31 00:26:21;;;;;;;2.95;1.52;;;14.60;73.30;;;;;;4947939;28;20055;-51
2023/10/31 00:28:52;;;;;;;1.65;1.40;;;14.60;73.20;;;;;;4951057;28;20094;-50
2023/10/31 00:31:19;;;;;;;1.40;1.30;;;14.50;73.20;;;;;;4949452;28;20054;-53
2023/10/31 00:33:46;;;;;;;3.75;1.67;;;14.50;73.20;;;;;;4932888;29;20742;-53
2023/10/31 00:36:13;;;;;;;3.50;2.35;;;14.50;73.20;;;;;;4951923;28;20050;-48
2023/10/31 00:38:39;;;;;;;3.70;2.42;;;14.50;73.20;;;;;;4933731;29;20087;-55
2023/10/31 00:41:06;;;;;;;2.63;2.15;;;14.50;73.50;;;;;;4950414;28;20083;-54
2023/10/31 00:43:33;;;;;;;3.03;2.72;;;14.50;73.60;;;;;;4960456;28;20070;-53
2023/10/31 00:46:03;;;;;;;2.97;2.65;;;14.50;73.60;;;;;;4951448;28;20510;-53
2023/10/31 00:48:36;;;;;;;2.67;2.05;;;14.50;73.70;;;;;;4933235;29;20040;-51
2023/10/31 00:51:03;;;;;;;3.05;2.10;;;14.50;73.70;;;;;;4932740;28;20106;-54
2023/10/31 00:53:32;;;;;;;3.05;2.40;;;14.50;73.60;;;;;;4932733;29;20045;-52
2023/10/31 00:55:58;;;;;;;3.22;2.83;;;14.50;73.60;;;;;;4956106;28;20039;-52
2023/10/31 00:58:25;;;;;;;6.38;3.15;;;14.50;73.70;;;;;;4933452;29;20098;-51
2023/10/31 01:00:52;;;;;;;3.00;2.70;;;14.50;73.70;;;;;;4932691;29;20087;-48
2023/10/31 01:03:19;;;;;;;3.03;2.72;;;14.50;73.70;;;;;;4960426;28;20082;-53
2023/10/31 01:05:46;;;;;;;3.35;2.83;;;14.50;73.70;;;;;;4959239;28;20050;-47
2023/10/31 01:08:12;;;;;;;4.18;2.95;;;14.50;73.80;;;;;;4936460;28;20051;-48
2023/10/31 01:10:39;;;;;;;3.40;2.72;;;14.50;73.80;;;;;;4953115;28;20098;-52
2023/10/31 01:13:06;;;;;;;5.57;4.10;;;14.50;73.80;;;;;;4953027;28;20535;-50
2023/10/31 01:15:33;;;;;;;3.63;2.83;;;14.50;73.80;;;;;;4935769;29;20723;-51
2023/10/31 01:18:00;;;;;;;4.07;3.13;;;14.50;73.80;;;;;;4961774;28;20134;-54
2023/10/31 01:20:27;;;;;;;4.32;3.42;;;14.50;73.90;;;;;;4948747;28;20610;-49
2023/10/31 01:22:53;;;;;;;3.53;3.03;;;14.50;73.90;;;;;;4939726;29;20059;-51
2023/10/31 01:25:20;;;;;;;6.40;3.45;;;14.50;73.70;;;;;;4937789;28;20062;-51
2023/10/31 01:27:47;;;;;;;4.03;3.63;;;14.60;73.70;;;;;;4935515;29;20051;-52
2023/10/31 01:30:13;;;;;;;3.75;2.92;;;14.60;73.80;;;;;;4953121;28;20075;-52
2023/10/31 01:32:40;;;;;;;5.68;3.65;;;14.60;73.80;;;;;;4936011;29;20058;-52
2023/10/31 01:35:07;;;;;;;4.68;3.42;;;14.60;73.70;;;;;;4955766;28;20101;-51
2023/10/31 01:37:34;;;;;;;5.50;3.38;;;14.60;73.70;;;;;;4935352;29;20074;-51
2023/10/31 01:40:01;;;;;;;3.88;3.25;;;14.60;73.70;;;;;;4961251;28;20058;-52
2023/10/31 01:42:27;;;;;;;4.40;3.58;;;14.50;73.70;;;;;;4952977;28;20474;-49
2023/10/31 01:44:54;;;;;;;4.80;3.92;;;14.50;73.70;;;;;;4956098;28;20462;-50
2023/10/31 01:47:23;;;;;;;4.72;3.70;;;14.60;73.80;;;;;;4935343;28;20657;-49
2023/10/31 01:49:51;;;;;;;4.40;3.80;;;14.50;73.80;;;;;;4958166;28;20048;-50
2023/10/31 01:52:18;;;;;;;5.35;3.88;;;14.50;73.80;;;;;;4955096;28;20062;-52
2023/10/31 01:54:45;;;;;;;4.15;3.65;;;14.50;73.80;;;;;;4953127;28;20047;-50
2023/10/31 01:57:13;;;;;;;6.63;4.90;;;14.50;73.80;;;;;;4953408;28;20569;-52
2023/10/31 01:59:40;;;;;;;6.97;5.13;;;14.50;73.90;;;;;;4958475;28;20039;-52
2023/10/31 02:02:07;;;;;;;7.35;5.55;;;14.50;73.90;;;;;;4960565;28;20113;-51
2023/10/31 02:04:34;;;;;;;7.22;5.40;;;14.50;73.90;;;;;;4952674;28;20063;-51
2023/10/31 02:07:01;;;;;;;9.07;5.32;;;14.40;74.00;;;;;;4955992;28;20051;-52
2023/10/31 02:09:29;;;;;;;7.05;5.43;;;14.40;74.20;;;;;;4935959;28;20047;-54
2023/10/31 02:11:56;;;;;;;8.68;5.25;;;14.40;74.30;;;;;;4958217;28;20059;-52
2023/10/31 02:14:24;;;;;;;8.20;5.85;;;14.40;74.40;;;;;;4955450;28;20106;-53
2023/10/31 02:16:51;;;;;;;7.00;5.72;;;14.40;74.40;;;;;;4934602;29;20058;-52
2023/10/31 02:19:20;;;;;;;6.45;5.10;;;14.40;74.40;;;;;;4952808;28;20047;-50
2023/10/31 02:21:47;;;;;;;9.07;6.05;;;14.30;74.40;;;;;;4959283;28;20090;-52
2023/10/31 02:24:14;;;;;;;7.68;5.43;;;14.30;74.40;;;;;;4934471;28;20089;-50
2023/10/31 02:26:42;;;;;;;7.18;5.72;;;14.30;74.50;;;;;;4953360;28;20137;-53
2023/10/31 02:29:09;;;;;;;7.93;5.80;;;14.30;74.70;;;;;;4952434;28;20051;-52
2023/10/31 02:31:36;;;;;;;7.93;5.57;;;14.30;74.70;;;;;;4954874;28;20134;-52
2023/10/31 02:34:03;;;;;;;8.98;5.43;;;14.30;74.80;;;;;;4952440;28;20078;-50
2023/10/31 02:36:30;;;;;;;7.80;5.63;;;14.30;74.80;;;;;;4934080;28;20036;-52
2023/10/31 02:38:58;;;;;;;6.82;5.15;;;14.30;74.80;;;;;;4952358;28;20043;-49
2023/10/31 02:41:24;;;;;;;9.50;6.43;;;14.30;74.80;;;;;;4953150;28;20576;-54
2023/10/31 02:43:54;;;;;;;7.82;5.82;;;14.30;74.80;;;;;;4952111;28;20493;-49
2023/10/31 02:46:21;;;;;;;9.15;5.57;;;14.30;74.70;;;;;;4958094;28;20146;-52
2023/10/31 02:48:48;;;;;;;10.27;5.85;;;14.30;74.70;;;;;;4956892;28;20098;-52
2023/10/31 02:51:15;;;;;;;9.30;5.60;;;14.30;74.70;;;;;;4956212;28;20051;-53
2023/10/31 02:53:41;;;;;;;8.77;6.35;;;14.30;74.70;;;;;;4956187;28;20043;-54
2023/10/31 02:56:08;;;;;;;9.65;6.03;;;14.30;74.80;;;;;;4952602;28;20106;-49
2023/10/31 02:58:35;;;;;;;9.18;4.97;;;14.30;74.70;;;;;;4951971;28;20043;-50
2023/10/31 03:01:02;;;;;;;8.60;5.82;;;14.30;74.80;;;;;;4934103;29;20046;-51
2023/10/31 03:03:28;;;;;;;7.07;5.53;;;14.30;74.70;;;;;;4955782;28;20047;-52
2023/10/31 03:05:55;;;;;;;10.25;6.45;;;14.30;74.70;;;;;;4954923;28;20040;-50
2023/10/31 03:08:22;;;;;;;7.15;5.30;;;14.40;74.60;;;;;;4950902;28;20028;-51
2023/10/31 03:10:50;;;;;;;7.10;5.07;;;14.40;74.50;;;;;;4951464;28;20047;-50
2023/10/31 03:13:19;;;;;;;7.70;6.13;;;14.40;74.50;;;;;;4953356;28;20460;-52
2023/10/31 03:15:47;;;;;;;6.63;4.97;;;14.40;74.50;;;;;;4934697;29;20047;-51
2023/10/31 03:18:17;;;;;;;6.38;5.70;;;14.30;74.30;;;;;;4934081;28;20142;-54
2023/10/31 03:20:47;;;;;;;6.80;4.93;;;14.40;74.30;;;;;;4954788;28;20098;-50
2023/10/31 03:23:14;;;;;;;5.85;4.63;;;14.40;74.20;;;;;;4951356;28;20043;-50
2023/10/31 03:25:41;;;;;;;6.60;5.00;;;14.40;74.20;;;;;;4952989;28;20043;-49
2023/10/31 03:28:19;;;;;;;6.53;5.05;;;14.40;74.30;;;;;;4950627;28;20067;-51
2023/10/31 03:30:48;;;;;;;6.18;4.88;;;14.40;74.30;;;;;;4946393;28;20145;-48
2023/10/31 03:33:18;;;;;;;7.45;4.60;;;14.30;74.20;;;;;;4957015;28;20077;-53
2023/10/31 03:35:46;;;;;;;5.28;4.50;;;14.30;74.20;;;;;;4952873;28;20047;-48
2023/10/31 03:38:13;;;;;;;6.20;4.60;;;14.40;74.20;;;;;;4933813;29;20047;-52
2023/10/31 03:40:41;;;;;;;5.28;4.20;;;14.40;74.20;;;;;;4950716;28;20035;-50
2023/10/31 03:43:08;;;;;;;6.53;4.40;;;14.40;74.30;;;;;;4955735;28;20053;-52
2023/10/31 03:45:36;;;;;;;5.47;4.07;;;14.40;74.20;;;;;;4955907;28;20051;-51
2023/10/31 03:48:03;;;;;;;5.80;4.65;;;14.30;74.20;;;;;;4949653;28;20062;-51
2023/10/31 03:50:31;;;;;;;5.68;4.68;;;14.40;74.30;;;;;;4950258;28;20421;-51
2023/10/31 03:52:58;;;;;;;4.50;3.83;;;14.30;74.10;;;;;;4950876;28;20055;-52
2023/10/31 03:55:25;;;;;;;4.97;4.32;;;14.30;74.10;;;;;;4951645;28;20044;-55
2023/10/31 03:57:51;;;;;;;4.75;3.95;;;14.30;74.80;;;;;;4950490;28;20517;-50
2023/10/31 04:00:18;;;;;;;4.40;3.90;;;14.30;74.20;;;;;;4950592;28;20052;-51
2023/10/31 04:02:45;;;;;;;4.93;4.45;;;14.40;74.40;;;;;;4933493;29;20039;-53
2023/10/31 04:05:12;;;;;;;5.32;4.70;;;14.40;74.40;;;;;;4934450;28;20043;-49
2023/10/31 04:07:39;;;;;;;4.45;4.05;;;14.40;74.40;;;;;;4953857;28;20054;-51
2023/10/31 04:10:07;;;;;;;4.47;4.00;;;14.40;74.50;;;;;;4933416;29;20130;-51
2023/10/31 04:12:34;;;;;;;5.47;4.40;;;14.40;74.40;;;;;;4950607;28;20917;-53
2023/10/31 04:15:01;;;;;;;4.60;4.15;;;14.40;74.30;;;;;;4950111;28;20095;-50
2023/10/31 04:17:28;;;;;;;6.30;4.82;;;14.40;74.20;;;;;;4949998;28;20082;-49
2023/10/31 04:19:55;;;;;;;4.28;3.88;;;14.40;74.20;;;;;;4950626;28;20454;-48
2023/10/31 04:22:24;;;;;;;4.68;4.28;;;14.40;74.30;;;;;;4983736;22;20050;-49
2023/10/31 04:24:51;;;;;;;4.47;3.97;;;14.40;74.40;;;;;;4986163;28;20077;-49
2023/10/31 04:27:18;;;;;;;5.57;4.10;;;14.40;74.50;;;;;;4985806;28;20260;-50
2023/10/31 04:29:45;;;;;;;4.93;3.97;;;14.40;74.50;;;;;;4989969;28;20125;-51
2023/10/31 04:32:11;;;;;;;4.63;3.97;;;14.40;74.60;;;;;;4991621;28;20042;-49
2023/10/31 04:34:41;;;;;;;7.45;3.70;;;14.40;74.70;;;;;;4992848;28;20049;-49
2023/10/31 04:37:08;;;;;;;4.32;4.00;;;14.40;74.70;;;;;;4994562;28;20129;-49
2023/10/31 04:39:35;;;;;;;4.50;4.10;;;14.40;74.70;;;;;;5000427;28;20724;-50
2023/10/31 04:42:02;;;;;;;5.40;3.88;;;14.40;74.60;;;;;;4993076;28;20129;-50
2023/10/31 04:44:29;;;;;;;4.82;4.30;;;14.40;74.50;;;;;;4998738;28;20118;-51
2023/10/31 04:46:55;;;;;;;4.32;3.80;;;14.40;74.60;;;;;;4998266;28;20209;-50
2023/10/31 04:49:22;;;;;;;3.90;3.45;;;14.40;74.40;;;;;;4998264;28;20061;-49
2023/10/31 04:51:49;;;;;;;5.63;4.75;;;14.40;74.30;;;;;;4991186;28;20073;-52
2023/10/31 04:54:16;;;;;;;4.05;3.65;;;14.40;74.30;;;;;;4997819;28;20086;-53
2023/10/31 04:56:42;;;;;;;4.28;3.80;;;14.40;74.20;;;;;;4987714;28;20155;-49
2023/10/31 04:59:09;;;;;;;4.45;3.67;;;14.40;74.10;;;;;;4998180;28;20073;-49
2023/10/31 05:01:36;;;;;;;4.60;4.18;;;14.40;74.20;;;;;;4998128;28;20049;-50
2023/10/31 05:04:02;;;;;;;4.85;4.28;;;14.40;74.30;;;;;;4993529;28;20050;-50
2023/10/31 05:06:39;;;;;;;4.20;3.80;;;14.40;74.40;;;;;;4996706;28;20097;-50
2023/10/31 05:09:05;;;;;;;5.78;3.92;;;14.30;74.40;;;;;;5003366;28;20049;-49
2023/10/31 05:11:32;;;;;;;4.43;4.03;;;14.30;74.50;;;;;;4997350;28;20496;-53
2023/10/31 05:13:59;;;;;;;4.40;3.92;;;14.30;74.70;;;;;;4992503;28;20728;-49
2023/10/31 05:16:28;;;;;;;4.15;3.78;;;14.30;74.80;;;;;;4993475;28;20705;-50
2023/10/31 05:18:55;;;;;;;4.50;4.10;;;14.20;74.80;;;;;;4994597;28;20099;-52
2023/10/31 05:21:23;;;;;;;4.07;3.67;;;14.20;75.00;;;;;;4989087;28;20058;-49
2023/10/31 05:23:50;;;;;;;4.78;4.07;;;14.20;75.20;;;;;;4988700;28;20054;-49
2023/10/31 05:26:16;;;;;;;3.97;3.58;;;14.10;75.40;;;;;;4986243;28;20528;-55
2023/10/31 05:28:43;;;;;;;4.90;4.38;;;14.10;75.60;;;;;;4995134;28;20042;-51
2023/10/31 05:31:10;;;;;;;5.00;4.25;;;14.10;75.60;;;;;;4993827;28;20078;-52
2023/10/31 05:33:36;;;;;;;5.32;4.82;;;14.00;75.60;;;;;;4990310;28;20718;-51
2023/10/31 05:36:03;;;;;;;10.40;6.93;;;14.00;75.60;;;;;;4992813;28;20045;-50
2023/10/31 05:38:30;;;;;;;7.15;6.45;;;14.00;75.70;;;;;;4992342;28;20128;-50
2023/10/31 05:40:57;;;;;;;8.98;7.25;;;14.00;75.60;;;;;;4991634;28;20109;-53
2023/10/31 05:43:26;;;;;;;6.43;5.82;;;14.00;75.50;;;;;;4987746;28;20056;-49
2023/10/31 05:45:53;;;;;;;7.00;6.35;;;14.00;75.70;;;;;;4994342;28;20038;-51
2023/10/31 05:48:20;;;;;;;6.95;6.30;;;13.90;75.70;;;;;;4989210;28;20112;-55
2023/10/31 05:50:46;;;;;;;6.45;5.85;;;13.90;75.80;;;;;;4992296;28;20070;-49
2023/10/31 05:53:14;;;;;;;7.88;6.03;;;13.90;76.00;;;;;;4989935;28;20405;-51
2023/10/31 05:55:41;;;;;;;6.35;5.70;;;13.90;76.00;;;;;;4990042;28;20109;-50
2023/10/31 05:58:08;;;;;;;6.57;5.65;;;13.90;76.10;;;;;;4993343;28;20475;-51
2023/10/31 06:00:35;;;;;;;7.32;5.82;;;13.90;76.10;;;;;;4994927;28;20049;-50
2023/10/31 06:03:02;;;;;;;5.97;5.32;;;13.90;76.10;;;;;;4995233;28;20038;-52
2023/10/31 06:05:29;;;;;;;5.68;5.18;;;13.90;76.10;;;;;;4992488;28;20057;-50
2023/10/31 06:07:55;;;;;;;6.00;5.03;;;13.90;76.00;;;;;;4991037;28;20052;-50
2023/10/31 06:10:22;;;;;;;5.32;4.82;;;14.00;76.10;;;;;;4993677;28;20054;-51
2023/10/31 06:12:49;;;;;;;5.50;5.00;;;14.00;76.00;;;;;;4995736;28;20571;-52
2023/10/31 06:15:15;;;;;;;5.50;5.00;;;14.00;76.10;;;;;;4986799;28;20042;-55
2023/10/31 06:17:42;;;;;;;5.40;4.90;;;14.00;76.20;;;;;;4976783;28;20058;-54
2023/10/31 06:20:09;;;;;;;6.38;5.78;;;14.00;76.10;;;;;;4995055;28;20501;-52
2023/10/31 06:22:36;;;;;;;8.75;5.72;;;14.00;76.10;;;;;;4969944;28;20081;-55
2023/10/31 06:25:04;;;;;;;5.68;5.10;;;14.00;76.00;;;;;;4990940;28;20042;-55
2023/10/31 06:27:30;;;;;;;8.77;6.05;;;14.00;75.90;;;;;;4990950;28;20477;-55
2023/10/31 06:29:57;;;;;;;6.10;5.55;;;14.00;75.90;;;;;;4989976;28;20042;-54
2023/10/31 06:32:44;;;;;;;7.22;5.85;;;13.90;75.90;;;;;;4992018;28;20416;-54
2023/10/31 06:35:10;;;;;;;7.90;6.90;;;13.90;75.80;;;;;;4987153;28;20138;-54
2023/10/31 06:37:37;;;;;;;7.00;6.30;;;13.90;75.80;;;;;;4990613;28;20118;-55
2023/10/31 06:40:05;;;;;;;7.53;5.43;;;13.90;76.00;;;;;;4991025;28;20050;-54
2023/10/31 06:42:32;;;;;;;7.78;6.15;;;13.80;75.90;;;;;;4991911;28;20121;-52
2023/10/31 06:44:58;;;;;;;6.03;5.50;;;13.80;75.90;;;;;;4985751;28;20479;-54
2023/10/31 06:47:25;;;;;;;6.38;5.72;;;13.80;76.60;;;;;;4991288;28;20042;-55
2023/10/31 06:49:52;;;;;;;6.07;5.07;;;13.80;76.10;;;;;;4992493;28;20108;-55
2023/10/31 06:52:18;;;;;;;5.80;5.15;;;13.80;76.10;;;;;;4987996;28;20059;-54
2023/10/31 06:54:45;;;;;;;5.28;4.78;;;13.80;76.00;;;;;;4989933;28;20054;-55
2023/10/31 06:57:12;;;;;;;4.97;4.38;;;13.80;75.90;;;;;;4986142;28;20121;-54
2023/10/31 06:59:38;;;;;;;5.70;4.65;;;13.70;75.80;;;;;;4991665;28;20125;-53
2023/10/31 07:02:05;;;;;;;5.13;4.53;;;13.80;75.80;;;;;;4982615;28;20048;-54
2023/10/31 07:04:32;;;;;;;5.53;4.60;;;13.80;75.80;;;;;;4988243;28;20105;-55
2023/10/31 07:06:59;;;;;;;7.60;4.68;;;13.80;75.80;;;;;;4990609;28;20121;-55
2023/10/31 07:09:29;;;;;;;6.15;4.43;;;13.80;75.60;;;;;;4990749;28;20049;-54
2023/10/31 07:11:55;;;;;;;4.68;3.78;;;13.80;75.70;;;;;;4988243;28;20071;-54
2023/10/31 07:14:22;;;;;;;4.88;4.30;;;13.80;75.70;;;;;;4989054;28;20042;-54
2023/10/31 07:16:49;;;;;;;4.47;4.07;;;13.80;75.80;;;;;;4990454;28;20054;-54
2023/10/31 07:19:15;;;;;;;5.60;5.10;;;13.80;75.70;;;;;;4990197;28;20042;-55
2023/10/31 07:21:45;;;;;;;5.70;4.35;;;13.80;75.50;;;;;;4986069;28;20064;-54
2023/10/31 07:24:12;;;;;;;4.63;4.22;;;13.80;75.40;;;;;;4983362;28;20042;-55
2023/10/31 07:26:39;;;;;;;5.15;4.65;;;13.80;75.20;;;;;;4980763;28;20046;-54
2023/10/31 07:29:06;;;;;;;5.78;5.07;;;13.80;75.00;;;;;;4987376;28;20049;-55
2023/10/31 07:31:33;;;;;;;6.13;5.10;;;13.80;75.10;;;;;;4972263;28;20124;-54
2023/10/31 07:33:59;;;;;;;5.45;4.82;;;13.80;75.30;;;;;;4990774;28;20049;-55
2023/10/31 07:36:28;;;;;;;6.05;5.45;;;13.80;75.30;;;;;;4982223;28;20160;-55
2023/10/31 07:38:55;;;;;;;5.80;5.20;;;13.90;75.40;;;;;;4986095;28;20046;-55
2023/10/31 07:41:21;;;;;;;6.95;5.70;;;13.80;75.50;;;;;;4990762;28;20462;-54
2023/10/31 07:43:48;;;;;;;5.80;5.20;;;13.90;75.60;;;;;;4985242;28;20078;-53
2023/10/31 07:46:15;;;;;;;7.00;5.68;;;13.90;75.60;;;;;;4989605;28;20038;-53
2023/10/31 07:48:42;;;;;;;5.45;4.95;;;13.90;75.50;;;;;;4988907;28;20049;-52
2023/10/31 07:51:08;;;;;;;5.93;5.22;;;14.00;75.60;;;;;;4996839;28;20047;-51
2023/10/31 07:53:35;;;;;;;5.47;4.75;;;14.00;75.50;;;;;;5000108;28;20046;-55
2023/10/31 07:56:02;;;;;;;5.97;4.78;;;14.00;75.50;;;;;;4988535;28;20140;-54
2023/10/31 07:58:28;;;;;;;6.18;5.35;;;14.10;75.10;;;;;;5007574;28;20535;-55
2023/10/31 08:00:56;;;;;;;6.32;4.72;;;14.10;74.90;;;;;;5004768;28;20129;-55
2023/10/31 08:03:22;;;;;;;5.72;4.97;;;14.10;74.80;;;;;;4996540;28;20121;-54
2023/10/31 08:05:49;;;;;;;5.38;4.88;;;14.10;74.80;;;;;;5003074;28;20488;-54
2023/10/31 08:08:16;;;;;;;5.30;4.25;;;14.20;75.50;;;;;;4991013;28;20076;-54
2023/10/31 08:10:43;;;;;;;5.65;4.78;;;14.10;74.80;;;;;;5006227;28;20041;-54
2023/10/31 08:13:10;;;;;;;5.63;5.00;;;14.20;75.30;;;;;;4992357;28;20042;-51
2023/10/31 08:15:36;;;;;;;5.28;4.63;;;14.20;74.70;;;;;;5005347;28;20124;-55
2023/10/31 08:18:05;;;;;;;5.40;4.90;;;14.20;74.70;;;;;;5011390;28;20037;-54
2023/10/31 08:20:33;;;;;;;4.63;4.20;;;14.20;74.80;;;;;;5002045;28;20121;-54
2023/10/31 08:23:00;;;;;;;5.07;4.57;;;14.30;74.90;;;;;;4995192;28;20050;-53
2023/10/31 08:25:27;;;;;;;6.28;5.25;;;14.30;74.70;;;;;;4996054;28;20042;-51
2023/10/31 08:27:53;;;;;;;6.28;4.80;;;14.30;74.50;;;;;;5006814;28;20578;-54
2023/10/31 08:30:20;;;;;;;5.15;4.65;;;14.40;74.40;;;;;;5006480;28;20558;-55
2023/10/31 08:32:47;;;;;;;5.63;5.10;;;14.40;74.30;;;;;;4995981;28;20129;-52
2023/10/31 08:35:14;;;;;;;6.68;4.75;;;14.40;74.10;;;;;;5009797;28;20064;-54
2023/10/31 08:37:41;;;;;;;5.40;4.82;;;14.40;74.10;;;;;;5010756;28;20052;-55
2023/10/31 08:40:08;;;;;;;5.50;5.00;;;14.40;74.10;;;;;;5004301;28;20049;-55
2023/10/31 08:42:35;;;;;;;5.25;4.75;;;14.40;74.10;;;;;;4992124;28;20034;-55
2023/10/31 08:45:01;;;;;;;5.18;4.68;;;14.40;74.00;;;;;;5000933;28;20042;-54
2023/10/31 08:47:28;;;;;;;6.80;4.53;;;14.50;74.00;;;;;;5002780;28;20080;-50
2023/10/31 08:49:55;;;;;;;4.28;3.88;;;14.50;74.30;;;;;;5009507;28;20108;-54
2023/10/31 08:52:22;;;;;;;5.03;4.53;;;14.50;74.30;;;;;;5011595;28;20133;-55
2023/10/31 08:54:49;;;;;;;4.90;4.32;;;14.60;74.60;;;;;;4993267;28;20122;-53
2023/10/31 08:57:15;;;;;;;4.95;4.30;;;14.70;74.50;;;;;;5001041;28;20458;-54
2023/10/31 08:59:43;;;;;;;5.45;4.60;;;14.70;74.30;;;;;;4992421;28;20038;-54
2023/10/31 09:02:10;;;;;;;5.18;4.68;;;14.80;74.40;;;;;;5009441;28;20531;-54
2023/10/31 09:04:37;;;;;;;5.50;4.55;;;14.80;74.30;;;;;;5010939;28;20045;-54
2023/10/31 09:07:03;;;;;;;5.65;5.10;;;14.90;74.10;;;;;;5000447;28;20644;-55
2023/10/31 09:09:30;;;;;;;5.13;4.55;;;15.00;73.90;;;;;;5001756;28;20053;-54
2023/10/31 09:11:59;;;;;;;5.95;5.43;;;15.00;73.50;;;;;;5009380;28;20046;-54
2023/10/31 09:14:26;;;;;;;6.35;5.28;;;15.00;73.40;;;;;;5009772;28;20046;-55
2023/10/31 09:16:53;;;;;;;6.38;5.65;;;15.10;73.30;;;;;;4990338;28;20104;-54
2023/10/31 09:19:19;;;;;;;5.35;4.85;;;15.10;72.90;;;;;;5003348;28;20046;-53
2023/10/31 09:21:46;;;;;;;5.18;4.72;;;15.20;72.80;;;;;;5008331;28;20585;-55
2023/10/31 09:24:13;;;;;;;6.35;5.53;;;15.20;73.10;;;;;;5000453;28;20065;-55
2023/10/31 09:26:43;;;;;;;4.80;4.35;;;15.20;73.00;;;;;;4992727;28;20104;-53
2023/10/31 09:29:13;;;;;;;4.72;4.30;;;15.30;72.90;;;;;;5001579;28;20082;-54
2023/10/31 09:31:54;;;;;;;4.60;4.20;;;15.40;72.60;;;;;;5001304;28;20522;-54
2023/10/31 09:34:21;;;;;;;5.63;4.00;;;15.40;72.20;;;;;;4999359;28;20200;-54
2023/10/31 09:36:47;;;;;;;4.22;3.53;;;15.40;71.90;;;;;;4999309;28;20042;-51
2023/10/31 09:39:14;;;;;;;4.30;3.90;;;15.50;71.80;;;;;;5008368;28;20128;-54
2023/10/31 09:41:41;;;;;;;5.88;4.38;;;15.50;71.60;;;;;;5002646;28;20042;-54
2023/10/31 09:44:07;;;;;;;4.00;3.60;;;15.50;71.70;;;;;;4997768;28;20118;-54
2023/10/31 09:46:35;;;;;;;4.25;3.53;;;15.50;71.70;;;;;;4994789;28;20053;-54
2023/10/31 09:49:02;;;;;;;3.40;3.10;;;15.50;71.40;;;;;;5005466;28;20761;-54
2023/10/31 09:51:30;;;;;;;4.10;3.42;;;15.60;71.00;;;;;;4985681;28;20052;-51
2023/10/31 09:53:59;;;;;;;5.28;3.13;;;15.60;70.90;;;;;;5004754;28;20038;-54
2023/10/31 09:56:26;;;;;;;5.82;3.67;;;15.60;71.00;;;;;;4992209;28;20404;-51
2023/10/31 09:58:58;;;;;;;3.15;2.88;;;15.60;71.00;;;;;;5004019;28;20065;-54
2023/10/31 10:01:25;;;;;;;3.85;3.17;;;15.60;71.10;;;;;;4991980;28;20074;-55
2023/10/31 10:03:54;;;;;;;3.92;3.30;;;15.60;71.40;;;;;;4994032;28;20117;-51
2023/10/31 10:06:23;;;;;;;3.95;3.03;;;15.60;71.00;;;;;;4993093;28;20112;-54
2023/10/31 10:08:52;;;;;;;5.97;2.78;;;15.70;71.10;;;;;;4992186;28;20042;-53
2023/10/31 10:11:21;;;;;;;3.80;3.00;;;15.80;70.90;;;;;;4988485;28;20053;-55
2023/10/31 10:13:48;;;;;;;6.45;3.72;;;15.90;70.70;;;;;;4974756;28;20061;-51
2023/10/31 10:16:28;;;;;;;2.92;2.55;;;15.90;70.30;;;;;;4994993;28;20913;-55
2023/10/31 10:18:55;;;;;;;3.38;2.80;;;16.00;69.70;;;;;;4991339;28;20047;-54
2023/10/31 10:21:22;;;;;;;4.45;2.47;;;16.00;69.80;;;;;;4986998;28;20050;-54
2023/10/31 10:23:51;;;;;;;2.70;2.42;;;16.00;69.80;;;;;;4994674;28;20116;-54
2023/10/31 10:26:21;;;;;;;3.03;2.28;;;16.10;69.70;;;;;;4993149;28;20038;-51
2023/10/31 10:28:48;;;;;;;4.50;1.90;;;16.10;69.90;;;;;;4993078;28;20093;-55
2023/10/31 10:31:15;;;;;;;2.72;2.53;;;16.20;69.60;;;;;;4995873;28;20117;-55
2023/10/31 10:33:41;;;;;;;2.53;1.95;;;16.20;69.10;;;;;;4992424;28;20527;-53
2023/10/31 10:36:10;;;;;;;2.40;2.15;;;16.20;69.10;;;;;;4990863;28;20125;-54
2023/10/31 10:38:44;;;;;;;4.93;2.10;;;16.20;68.70;;;;;;4992550;28;20039;-55
2023/10/31 10:41:13;;;;;;;3.50;2.08;;;16.20;69.00;;;;;;4995726;28;20450;-54
2023/10/31 10:43:49;;;;;;;2.45;1.77;;;16.30;69.00;;;;;;4988838;28;20416;-55
2023/10/31 10:46:22;;;;;;;6.35;1.90;;;16.30;68.90;;;;;;4996022;28;20046;-51
2023/10/31 10:48:59;;;;;;;3.40;2.13;;;16.30;68.50;;;;;;5004297;28;20050;-54
2023/10/31 10:51:41;;;;;;;2.08;1.77;;;16.40;68.70;;;;;;4990355;28;20046;-56
2023/10/31 10:54:33;;;;;;;3.15;1.83;;;16.40;67.50;;;;;;5015780;22;20052;-46
2023/10/31 10:57:16;;;;;;;2.85;1.75;;;16.40;66.90;;;;;;4993652;28;20495;-59
2023/10/31 10:59:48;;;;;;;2.30;1.45;;;16.40;67.00;;;;;;4994781;28;20122;-46
2023/10/31 11:02:17;;;;;;;1.58;1.48;;;16.40;67.20;;;;;;4995402;28;20080;-46
2023/10/31 11:04:44;;;;;;;4.25;1.70;;;16.40;67.40;;;;;;4982701;28;20034;-46
2023/10/31 11:07:12;;;;;;;1.63;1.45;;;16.40;67.50;;;;;;4990187;28;20057;-46
2023/10/31 11:09:43;;;;;;;2.92;1.60;;;16.40;67.80;;;;;;4989766;28;20404;-47
2023/10/31 11:12:11;;;;;;;2.00;1.88;;;16.40;67.60;;;;;;4986707;28;20109;-46
2023/10/31 11:14:42;;;;;;;2.22;1.67;;;16.40;67.70;;;;;;4990702;28;20114;-45
2023/10/31 11:17:23;;;;;;;1.70;1.38;;;16.40;67.60;;;;;;4988902;28;20070;-47
2023/10/31 11:19:51;;;;;;;1.85;1.67;;;16.40;67.80;;;;;;4985877;28;20050;-48
2023/10/31 11:22:23;;;;;;;2.55;1.83;;;16.50;67.70;;;;;;4989998;28;20048;-44
2023/10/31 11:24:52;;;;;;;1.50;1.35;;;16.50;67.60;;;;;;4988012;28;20191;-45
2023/10/31 11:27:21;;;;;;;1.75;1.65;;;16.60;67.70;;;;;;4989237;28;20126;-45
2023/10/31 11:29:54;;;;;;;2.42;1.15;;;16.60;67.90;;;;;;4989442;28;20042;-45
2023/10/31 11:32:26;;;;;;;1.50;1.23;;;16.60;67.40;;;;;;4990837;28;20049;-45
2023/10/31 11:34:52;;;;;;;1.70;1.17;;;16.70;66.90;;;;;;4987529;28;20065;-46
2023/10/31 11:37:30;;;;;;;4.13;1.63;;;16.70;66.80;;;;;;4971924;28;20046;-46
2023/10/31 11:40:13;;;;;;;1.98;1.80;;;16.70;66.10;;;;;;4989344;28;20056;-45
2023/10/31 11:42:41;;;;;;;4.45;2.38;;;16.70;66.10;;;;;;4987437;28;20039;-45
2023/10/31 11:45:09;;;;;;;2.35;1.40;;;16.70;66.60;;;;;;4985011;28;20108;-45
2023/10/31 11:47:49;;;;;;;3.30;1.33;;;16.90;66.60;;;;;;4987873;28;20038;-48
2023/10/31 11:50:18;;;;;;;4.38;1.58;;;16.70;66.60;;;;;;4987649;28;20038;-46
2023/10/31 11:53:04;;;;;;;1.35;1.25;;;16.70;66.60;;;;;;4985212;28;20046;-46
2023/10/31 11:55:34;;;;;;;2.72;1.75;;;16.80;65.60;;;;;;4982144;28;20801;-45
2023/10/31 11:58:15;;;;;;;2.40;1.73;;;16.70;66.10;;;;;;4987754;28;20101;-47
2023/10/31 12:00:42;;;;;;;1.65;1.42;;;16.70;65.60;;;;;;4988535;28;20049;-46
2023/10/31 12:03:15;;;;;;;3.30;1.73;;;16.70;66.00;;;;;;4987688;28;20050;-45
2023/10/31 12:05:54;;;;;;;1.48;1.20;;;16.70;65.90;;;;;;4989052;28;20656;-50
2023/10/31 12:08:35;;;;;;;1.38;1.08;;;16.70;65.60;;;;;;4989203;28;20039;-50
2023/10/31 12:11:16;;;;;;;2.83;1.60;;;16.70;65.80;;;;;;4989510;28;20048;-46
2023/10/31 12:14:04;;;;;;;2.95;1.23;;;16.70;66.30;;;;;;4984588;28;20104;-46
2023/10/31 12:16:40;;;;;;;2.78;1.30;;;16.70;65.80;;;;;;4985593;28;20056;-47
2023/10/31 12:19:07;;;;;;;1.55;1.38;;;16.70;66.00;;;;;;4985937;28;20141;-47
2023/10/31 12:21:46;;;;;;;1.55;1.45;;;16.70;66.00;;;;;;4983786;28;20078;-46
2023/10/31 12:24:18;;;;;;;1.40;1.30;;;16.70;65.30;;;;;;4988193;28;20038;-48
2023/10/31 12:26:46;;;;;;;3.17;1.63;;;16.70;65.60;;;;;;4985963;28;20101;-50
2023/10/31 12:29:17;;;;;;;1.50;1.08;;;16.70;65.70;;;;;;4989123;28;20030;-49
2023/10/31 12:31:54;;;;;;;2.83;1.73;;;16.70;65.90;;;;;;4989788;28;20041;-47
2023/10/31 12:34:34;;;;;;;4.15;1.58;;;16.70;65.70;;;;;;4987238;28;20095;-48
2023/10/31 12:37:03;;;;;;;5.15;2.22;;;16.80;65.70;;;;;;4989779;28;20413;-47
2023/10/31 12:39:30;;;;;;;3.78;1.60;;;16.80;65.80;;;;;;4988950;28;20050;-46
2023/10/31 12:41:58;;;;;;;4.07;1.65;;;16.80;65.70;;;;;;4986185;28;20081;-47
2023/10/31 12:44:31;;;;;;;1.98;1.50;;;16.90;65.90;;;;;;4988558;28;20035;-48
2023/10/31 12:47:01;;;;;;;3.78;1.73;;;16.90;65.60;;;;;;4989599;28;20121;-48
2023/10/31 12:49:28;;;;;;;1.58;1.48;;;17.00;65.60;;;;;;4986694;28;20475;-47
2023/10/31 12:51:55;;;;;;;3.30;1.65;;;17.10;65.60;;;;;;4988052;28;20073;-47